Terminal Aerodrome Forecast
Issued by NWS Blacksburg, VA

Current Version | Previous Version | Graphics & Text | Print | Product List | Glossary On
Versions: 1 2 3 4 5 6 7 8 9 10 11 12 13 14 15 16 17 18 19 20 21 22 23 24 25 26 27 28
330
FTUS41 KRNK 181122
TAFBLF
TAF
KBLF 181122Z 1812/1912 30007G15KT P6SM SCT015
      TEMPO 1812/1814 BKN015
     FM181400 25006KT P6SM SCT015
     FM181700 15004KT P6SM FEW250
     FM190600 16010KT P6SM OVC120
     FM190800 16007G15KT 4SM -RA BR OVC009=

USA.gov is the U.S. government's official web portal to all federal, state and local government web resources and services.